Time;durP1;ratioP1;P1;durP2;ratioP2;P2;SDS_P1;SDS_P2;PMS_P1;PMS_P2;Temp;Humidity;BMP_temperature;BMP_pressure;BME280_temperature;BME280_humidity;BME280_pressure;Samples;Min_cycle;Max_cycle;Signal;HPM_P1;HPM_P2
2021/03/21 00:01:02;;;;;;;;;;;;;;;1.30;59.24;100400.94;4363796;32;19974;-89
2021/03/21 00:03:27;;;;;;;;;;;;;;;1.14;59.23;100404.94;4363690;32;20046;-89
2021/03/21 00:05:53;;;;;;;;;;;;;;;1.22;59.24;100409.38;4363787;32;20046;-89
2021/03/21 00:08:22;;;;;;;;;;;;;;;1.17;59.23;100407.53;4363653;32;20013;-88
2021/03/21 00:10:55;;;;;;;;;;;;;;;1.21;59.24;100404.22;4363423;32;19989;-88
2021/03/21 00:13:20;;;;;;;;;;;;;;;1.27;59.24;100401.75;4377499;32;19989;-88
2021/03/21 00:15:45;;;;;;;;;;;;;;;1.37;59.24;100401.03;4377330;32;20018;-88
2021/03/21 00:18:11;;;;;;;;;;;;;;;1.28;59.25;100406.03;4363750;32;20038;-89
2021/03/21 00:20:36;;;;;;;;;;;;;;;1.51;59.25;100393.56;4363500;32;20632;-88
2021/03/21 00:23:01;;;;;;;;;;;;;;;1.38;59.24;100389.94;4363515;32;19974;-88
2021/03/21 00:25:27;;;;;;;;;;;;;;;1.38;59.25;100383.94;4363462;32;20005;-88
2021/03/21 00:27:52;;;;;;;;;;;;;;;1.35;59.25;100387.31;4363414;32;20288;-89
2021/03/21 00:30:19;;;;;;;;;;;;;;;1.16;59.24;100390.44;4362757;32;28439;-90
2021/03/21 00:32:45;;;;;;;;;;;;;;;1.23;59.24;100384.59;4363317;32;20701;-89
2021/03/21 00:35:10;;;;;;;;;;;;;;;1.38;59.24;100382.25;4362547;32;33998;-88
2021/03/21 00:37:38;;;;;;;;;;;;;;;1.28;59.25;100376.97;4350948;32;20019;-89
2021/03/21 00:40:04;;;;;;;;;;;;;;;1.15;59.24;100379.31;4363634;32;19990;-89
2021/03/21 00:42:29;;;;;;;;;;;;;;;1.43;59.25;100369.50;4363117;32;20050;-88
2021/03/21 00:44:54;;;;;;;;;;;;;;;1.50;59.26;100373.88;4363409;32;19998;-87
2021/03/21 00:47:20;;;;;;;;;;;;;;;1.56;59.26;100368.81;4376476;32;25293;-88
2021/03/21 00:49:45;;;;;;;;;;;;;;;1.42;59.25;100370.31;4362336;32;33511;-88
2021/03/21 00:52:10;;;;;;;;;;;;;;;1.29;59.25;100373.56;4349357;32;21861;-88
2021/03/21 00:54:35;;;;;;;;;;;;;;;1.45;59.25;100366.13;4349891;32;36641;-87
2021/03/21 00:57:00;;;;;;;;;;;;;;;1.33;59.24;100365.06;4375061;32;33475;-88
2021/03/21 00:59:26;;;;;;;;;;;;;;;1.43;59.25;100356.69;4376097;32;33264;-89
2021/03/21 01:01:51;;;;;;;;;;;;;;;1.54;59.25;100355.97;4376616;32;20013;-89
2021/03/21 01:04:16;;;;;;;;;;;;;;;1.50;59.25;100350.78;4376209;32;24966;-88
2021/03/21 01:06:41;;;;;;;;;;;;;;;1.61;59.26;100353.50;4362800;32;19998;-88
2021/03/21 01:09:08;;;;;;;;;;;;;;;1.58;59.26;100344.06;4362145;32;36684;-86
2021/03/21 01:11:33;;;;;;;;;;;;;;;1.57;59.26;100351.72;4362769;32;20042;-88
2021/03/21 01:13:59;;;;;;;;;;;;;;;1.56;59.26;100344.88;4362825;32;20340;-90
2021/03/21 01:16:28;;;;;;;;;;;;;;;1.40;59.25;100341.22;4350441;32;20001;-89
2021/03/21 01:18:53;;;;;;;;;;;;;;;1.44;59.25;100343.00;4362966;32;20004;-89
2021/03/21 01:21:19;;;;;;;;;;;;;;;1.23;59.24;100341.00;4362661;32;20357;-89
2021/03/21 01:23:44;;;;;;;;;;;;;;;1.11;59.24;100343.34;4363077;32;20343;-89
2021/03/21 01:26:11;;;;;;;;;;;;;;;1.13;59.23;100345.09;4362764;32;19995;-90
2021/03/21 01:28:36;;;;;;;;;;;;;;;1.03;59.22;100338.13;4362880;32;20283;-89
2021/03/21 01:31:01;;;;;;;;;;;;;;;0.84;59.22;100341.22;4362767;32;20010;-89
2021/03/21 01:33:27;;;;;;;;;;;;;;;0.85;59.22;100338.69;4362729;32;19991;-89
2021/03/21 01:35:52;;;;;;;;;;;;;;;1.10;59.23;100331.38;4362700;32;20285;-89
2021/03/21 01:38:18;;;;;;;;;;;;;;;1.07;59.23;100326.22;4362841;32;20001;-89
2021/03/21 01:40:43;;;;;;;;;;;;;;;1.13;59.23;100329.72;4362562;32;19999;-89
2021/03/21 01:43:15;;;;;;;;;;;;;;;1.02;59.22;100322.72;4376228;32;19995;-88
2021/03/21 01:45:42;;;;;;;;;;;;;;;1.12;59.23;100312.59;4350305;32;20010;-89
2021/03/21 01:48:15;;;;;;;;;;;;;;;1.15;59.23;100322.91;4362487;32;19983;-89
2021/03/21 01:50:59;;;;;;;;;;;;;;;1.21;59.24;100314.47;4362398;32;19975;-89
2021/03/21 01:53:26;;;;;;;;;;;;;;;1.25;59.23;100312.81;4376501;32;19991;-90
2021/03/21 01:55:52;;;;;;;;;;;;;;;1.22;59.24;100316.19;4362668;32;19995;-88
2021/03/21 01:58:17;;;;;;;;;;;;;;;1.06;59.23;100306.53;4362113;32;20245;-87
2021/03/21 02:00:42;;;;;;;;;;;;;;;1.07;59.23;100309.13;4362276;32;20320;-87
2021/03/21 02:03:07;;;;;;;;;;;;;;;0.89;59.22;100314.81;4375973;32;20285;-87
2021/03/21 02:05:33;;;;;;;;;;;;;;;0.85;59.22;100312.19;4378100;32;20029;-88
2021/03/21 02:08:11;;;;;;;;;;;;;;;1.11;59.24;100312.59;4364024;32;20031;-87
2021/03/21 02:10:44;;;;;;;;;;;;;;;0.96;59.23;100305.53;4364302;32;20001;-87
2021/03/21 02:13:19;;;;;;;;;;;;;;;1.00;59.22;100306.44;4364375;32;19999;-88
2021/03/21 02:15:47;;;;;;;;;;;;;;;0.97;59.23;100299.59;4364137;32;19994;-87
2021/03/21 02:18:15;;;;;;;;;;;;;;;1.02;59.23;100302.22;4376663;32;20033;-88
2021/03/21 02:20:49;;;;;;;;;;;;;;;0.81;59.21;100295.03;4378032;32;20276;-88
2021/03/21 02:23:17;;;;;;;;;;;;;;;1.00;59.22;100297.06;4378062;32;19975;-88
2021/03/21 02:25:50;;;;;;;;;;;;;;;0.74;59.21;100285.53;4364363;32;20046;-88
2021/03/21 02:28:27;;;;;;;;;;;;;;;0.74;59.21;100281.28;4364204;32;20828;-88
2021/03/21 02:30:53;;;;;;;;;;;;;;;0.45;59.20;100282.47;4364138;32;20025;-89
2021/03/21 02:33:23;;;;;;;;;;;;;;;0.45;59.20;100280.78;4364332;32;19986;-89
2021/03/21 02:36:04;;;;;;;;;;;;;;;0.40;59.19;100279.84;4364186;32;20005;-87
2021/03/21 02:38:33;;;;;;;;;;;;;;;0.41;59.20;100283.25;4377892;32;20005;-86
2021/03/21 02:41:00;;;;;;;;;;;;;;;0.27;59.18;100270.22;4364169;32;20037;-86
2021/03/21 02:43:33;;;;;;;;;;;;;;;0.15;59.17;100285.34;4378045;32;20014;-89
2021/03/21 02:46:00;;;;;;;;;;;;;;;0.20;59.18;100284.59;4364203;32;20020;-88
2021/03/21 02:48:33;;;;;;;;;;;;;;;0.31;59.19;100282.25;4364093;32;20335;-88
2021/03/21 02:51:08;;;;;;;;;;;;;;;0.20;59.18;100282.03;4364093;32;19979;-89
2021/03/21 02:53:36;;;;;;;;;;;;;;;0.23;59.18;100281.22;4364088;32;20003;-87
2021/03/21 02:56:01;;;;;;;;;;;;;;;0.24;59.18;100275.31;4364091;32;20370;-88
2021/03/21 02:58:35;;;;;;;;;;;;;;;0.02;59.17;100278.31;4363978;32;19987;-85
2021/03/21 03:01:26;;;;;;;;;;;;;;;-0.05;59.17;100277.31;4363859;32;20009;-86
2021/03/21 03:03:52;;;;;;;;;;;;;;;-0.11;59.16;100277.19;4360893;32;19983;-87
2021/03/21 03:06:19;;;;;;;;;;;;;;;-0.16;59.16;100273.69;4363860;32;19979;-85
2021/03/21 03:08:48;;;;;;;;;;;;;;;-0.19;59.16;100277.06;4364298;32;20706;-90
2021/03/21 03:11:14;;;;;;;;;;;;;;;-0.19;59.16;100274.50;4364071;32;20355;-89
2021/03/21 03:13:41;;;;;;;;;;;;;;;-0.32;59.15;100270.81;4363884;32;19993;-89
2021/03/21 03:16:27;;;;;;;;;;;;;;;-0.38;59.14;100274.94;4363432;32;20046;-88
2021/03/21 03:19:03;;;;;;;;;;;;;;;-0.48;59.14;100271.31;4377223;32;19966;-88
2021/03/21 03:21:30;;;;;;;;;;;;;;;-0.57;59.14;100271.16;4364094;32;20331;-88
2021/03/21 03:23:57;;;;;;;;;;;;;;;-0.58;59.14;100261.75;4364158;32;19986;-88
2021/03/21 03:26:42;;;;;;;;;;;;;;;-0.63;59.13;100271.88;4364206;32;20022;-87
2021/03/21 03:29:28;;;;;;;;;;;;;;;-0.68;59.13;100262.41;4377560;32;19987;-87
2021/03/21 03:31:56;;;;;;;;;;;;;;;-0.59;59.13;100259.16;4363735;32;19991;-88
2021/03/21 03:34:22;;;;;;;;;;;;;;;-0.55;59.14;100258.38;4363902;32;20142;-86
2021/03/21 03:36:47;;;;;;;;;;;;;;;-0.66;59.13;100250.50;4363782;32;20351;-88
2021/03/21 03:39:12;;;;;;;;;;;;;;;-0.68;59.13;100250.47;4363849;32;20025;-88
2021/03/21 03:41:39;;;;;;;;;;;;;;;-0.67;59.12;100248.78;4363795;32;20473;-87
2021/03/21 03:44:12;;;;;;;;;;;;;;;-0.78;59.12;100255.34;4363745;32;19986;-87
2021/03/21 03:46:37;;;;;;;;;;;;;;;-0.69;59.13;100253.00;4363864;32;19999;-88
2021/03/21 03:49:21;;;;;;;;;;;;;;;-0.67;59.12;100246.22;4377530;32;19987;-87
2021/03/21 03:51:51;;;;;;;;;;;;;;;-0.46;59.14;100239.00;4377695;32;20001;-87
2021/03/21 03:54:22;;;;;;;;;;;;;;;-0.49;59.15;100232.94;4363827;32;19998;-86
2021/03/21 03:56:51;;;;;;;;;;;;;;;-0.50;59.15;100237.19;4376433;32;20013;-86
2021/03/21 03:59:35;;;;;;;;;;;;;;;-0.57;59.14;100244.72;4363976;32;19983;-87
2021/03/21 04:02:03;;;;;;;;;;;;;;;-0.55;59.13;100233.69;4377660;32;19982;-87
2021/03/21 04:04:31;;;;;;;;;;;;;;;-0.50;59.15;100237.19;4377356;32;19975;-86
2021/03/21 04:07:15;;;;;;;;;;;;;;;-0.48;59.14;100232.97;4377334;32;19991;-87
2021/03/21 04:09:42;;;;;;;;;;;;;;;-0.33;59.15;100225.59;4377249;32;20037;-87
2021/03/21 04:12:09;;;;;;;;;;;;;;;-0.66;59.13;100230.06;4363370;32;19991;-87
2021/03/21 04:14:37;;;;;;;;;;;;;;;-0.70;59.13;100226.59;4363357;32;19986;-86
2021/03/21 04:17:17;;;;;;;;;;;;;;;-0.73;59.12;100223.94;4363564;32;20027;-87
2021/03/21 04:19:45;;;;;;;;;;;;;;;-0.68;59.13;100221.50;4377305;32;20037;-87
2021/03/21 04:22:14;;;;;;;;;;;;;;;-0.78;59.12;100219.56;4363329;32;20057;-88
2021/03/21 04:24:41;;;;;;;;;;;;;;;-1.06;59.10;100211.31;4363458;32;19998;-88
2021/03/21 04:27:20;;;;;;;;;;;;;;;-0.96;59.11;100210.66;4363709;32;20006;-88
2021/03/21 04:29:48;;;;;;;;;;;;;;;-1.10;59.10;100209.53;4363581;32;19989;-88
2021/03/21 04:32:15;;;;;;;;;;;;;;;-1.00;59.12;100205.47;4377258;32;19989;-88
2021/03/21 04:34:42;;;;;;;;;;;;;;;-1.03;59.11;100211.38;4363361;32;20643;-87
2021/03/21 04:37:07;;;;;;;;;;;;;;;-0.98;59.11;100211.47;4363555;32;20058;-87
2021/03/21 04:39:33;;;;;;;;;;;;;;;-1.15;59.11;100208.56;4376491;32;33448;-87
2021/03/21 04:42:05;;;;;;;;;;;;;;;-1.04;59.11;100201.97;4363257;32;19991;-87
2021/03/21 04:44:35;;;;;;;;;;;;;;;-1.17;59.09;100207.66;4363496;32;20003;-87
2021/03/21 04:47:03;;;;;;;;;;;;;;;-1.19;59.10;100205.88;4363537;32;20009;-87
2021/03/21 04:49:29;;;;;;;;;;;;;;;-1.10;59.10;100201.00;4377070;32;19983;-87
2021/03/21 04:51:58;;;;;;;;;;;;;;;-1.05;59.11;100194.28;4362530;32;28963;-90
2021/03/21 04:54:24;;;;;;;;;;;;;;;-1.19;59.09;100196.53;4363053;32;20463;-86
2021/03/21 04:57:09;;;;;;;;;;;;;;;-1.05;59.11;100191.72;4363236;32;20064;-88
2021/03/21 04:59:34;;;;;;;;;;;;;;;-1.19;59.10;100193.09;4375279;32;20040;-89
2021/03/21 05:02:04;;;;;;;;;;;;;;;-0.87;59.11;100194.69;4363555;32;19979;-88
2021/03/21 05:04:33;;;;;;;;;;;;;;;-1.17;59.09;100196.59;4363573;32;20665;-87
2021/03/21 05:07:08;;;;;;;;;;;;;;;-1.13;59.11;100199.25;4363578;32;20044;-89
2021/03/21 05:09:40;;;;;;;;;;;;;;;-1.05;59.10;100192.59;4376054;32;20485;-90
2021/03/21 05:12:07;;;;;;;;;;;;;;;-0.95;59.11;100197.09;4364024;32;19983;-90
2021/03/21 05:14:34;;;;;;;;;;;;;;;-0.69;59.13;100197.63;4363833;32;20052;-88
2021/03/21 05:17:05;;;;;;;;;;;;;;;-0.81;59.12;100196.50;4363210;32;20061;-88
2021/03/21 05:19:41;;;;;;;;;;;;;;;-0.92;59.12;100191.19;4363192;32;19985;-89
2021/03/21 05:22:12;;;;;;;;;;;;;;;-0.82;59.12;100182.87;4363176;32;19993;-89
2021/03/21 05:24:39;;;;;;;;;;;;;;;-0.89;59.11;100190.38;4363418;32;20011;-89
2021/03/21 05:27:05;;;;;;;;;;;;;;;-0.77;59.13;100193.16;4363365;32;19991;-88
2021/03/21 05:29:39;;;;;;;;;;;;;;;-0.84;59.12;100196.44;4375731;32;20412;-89
2021/03/21 05:32:05;;;;;;;;;;;;;;;-0.79;59.13;100193.16;4375826;32;19993;-89
2021/03/21 05:34:30;;;;;;;;;;;;;;;-0.64;59.14;100190.91;4363099;32;19983;-90
2021/03/21 05:36:55;;;;;;;;;;;;;;;-0.57;59.14;100196.13;4363660;32;20956;-90
2021/03/21 05:39:44;;;;;;;;;;;;;;;-0.42;59.15;100187.06;4377261;32;20323;-91
2021/03/21 05:42:18;;;;;;;;;;;;;;;-0.44;59.14;100191.31;4366136;32;20339;-91
2021/03/21 05:44:43;;;;;;;;;;;;;;;-0.38;59.15;100191.41;4366109;32;20627;-90
2021/03/21 05:47:14;;;;;;;;;;;;;;;-0.47;59.14;100192.94;4378700;32;20002;-90
2021/03/21 05:50:02;;;;;;;;;;;;;;;-0.63;59.14;100191.78;4365367;32;20421;-89
2021/03/21 05:52:27;;;;;;;;;;;;;;;-0.55;59.13;100192.78;4364531;32;20007;-87
2021/03/21 05:54:56;;;;;;;;;;;;;;;-0.31;59.15;100192.38;4376876;32;20000;-88
2021/03/21 05:57:40;;;;;;;;;;;;;;;-0.27;59.15;100183.94;4378572;32;20009;-89
2021/03/21 06:00:24;;;;;;;;;;;;;;;-0.36;59.15;100179.50;4377248;32;20050;-89
2021/03/21 06:02:52;;;;;;;;;;;;;;;-0.24;59.15;100181.41;4376862;32;20033;-87
2021/03/21 06:05:29;;;;;;;;;;;;;;;-0.28;59.14;100183.91;4376886;32;20006;-87
2021/03/21 06:08:01;;;;;;;;;;;;;;;-0.22;59.15;100181.47;4374244;32;20017;-87
2021/03/21 06:10:26;;;;;;;;;;;;;;;-0.07;59.16;100186.84;4363375;32;20363;-89
2021/03/21 06:13:04;;;;;;;;;;;;;;;-0.05;59.17;100186.03;4374433;32;19998;-89
2021/03/21 06:15:38;;;;;;;;;;;;;;;-0.05;59.17;100186.03;4363423;32;20003;-88
2021/03/21 06:18:42;;;;;;;;;;;;;;;0.32;59.19;100185.81;4374435;32;20345;-89
2021/03/21 06:21:13;;;;;;;;;;;;;;;0.19;59.18;100189.84;4316336;33;20063;-87
2021/03/21 06:23:44;;;;;;;;;;;;;;;0.49;59.19;100172.44;4316618;33;19990;-87
2021/03/21 06:26:20;;;;;;;;;;;;;;;0.53;59.20;100171.66;4341070;32;20324;-85
2021/03/21 06:29:24;;;;;;;;;;;;;;;0.66;59.21;100171.81;4361868;32;20077;-88
2021/03/21 06:32:04;;;;;;;;;;;;;;;0.69;59.21;100170.16;4304243;33;20039;-87
2021/03/21 06:34:47;;;;;;;;;;;;;;;0.82;59.22;100166.94;4303832;33;19976;-88
2021/03/21 06:37:19;;;;;;;;;;;;;;;0.78;59.22;100157.50;4347872;32;20106;-88
2021/03/21 06:40:00;;;;;;;;;;;;;;;0.86;59.21;100158.44;4374161;32;20017;-89
2021/03/21 06:42:44;;;;;;;;;;;;;;;0.86;59.21;100155.87;4361674;32;19985;-87
2021/03/21 06:45:19;;;;;;;;;;;;;;;1.08;59.23;100156.16;4374319;32;20000;-85
2021/03/21 06:47:47;;;;;;;;;;;;;;;1.28;59.25;100153.84;4363335;32;20031;-86
2021/03/21 06:50:18;;;;;;;;;;;;;;;1.42;59.26;100147.16;4362442;32;19990;-86
2021/03/21 06:52:49;;;;;;;;;;;;;;;1.72;59.27;100154.34;4363261;32;20006;-85
2021/03/21 06:55:30;;;;;;;;;;;;;;;1.48;59.25;100152.37;4374189;32;19989;-86
2021/03/21 06:58:11;;;;;;;;;;;;;;;1.49;59.26;100144.69;4361849;32;20006;-85
2021/03/21 07:00:52;;;;;;;;;;;;;;;1.61;59.26;100151.66;4363161;32;20070;-84
2021/03/21 07:03:23;;;;;;;;;;;;;;;1.71;59.27;100148.34;4361885;32;20006;-84
2021/03/21 07:05:52;;;;;;;;;;;;;;;1.54;59.26;100152.44;4362882;32;19990;-84
2021/03/21 07:08:26;;;;;;;;;;;;;;;1.34;59.25;100157.34;4376274;32;19983;-85
2021/03/21 07:11:00;;;;;;;;;;;;;;;1.42;59.26;100148.06;4377685;32;20001;-86
2021/03/21 07:13:53;;;;;;;;;;;;;;;1.68;59.27;100150.88;4363974;32;20041;-86
2021/03/21 07:16:40;;;;;;;;;;;;;;;1.60;59.26;100142.22;4363711;32;19971;-86
2021/03/21 07:19:11;;;;;;;;;;;;;;;1.68;59.26;100145.75;4363833;32;19990;-85
2021/03/21 07:21:55;;;;;;;;;;;;;;;1.78;59.27;100141.56;4377662;32;20002;-86
2021/03/21 07:24:26;;;;;;;;;;;;;;;1.77;59.28;100142.41;4377852;32;19970;-85
2021/03/21 07:26:51;;;;;;;;;;;;;;;1.83;59.27;100145.03;4376385;32;20050;-84
2021/03/21 07:29:26;;;;;;;;;;;;;;;1.37;59.24;100144.56;4376216;32;20268;-85
2021/03/21 07:31:51;;;;;;;;;;;;;;;1.66;59.26;100139.75;4377675;32;19982;-85
2021/03/21 07:34:21;;;;;;;;;;;;;;;1.90;59.27;100135.72;4377466;32;20033;-86
2021/03/21 07:36:52;;;;;;;;;;;;;;;1.75;59.27;100133.84;4363735;32;19975;-86
2021/03/21 07:39:19;;;;;;;;;;;;;;;2.09;59.29;100135.84;4364024;32;19979;-86
2021/03/21 07:41:47;;;;;;;;;;;;;;;2.30;59.30;100124.87;4363915;32;20006;-85
2021/03/21 07:44:31;;;;;;;;;;;;;;;2.45;59.32;100127.56;4376480;32;19986;-86
2021/03/21 07:46:56;;;;;;;;;;;;;;;2.54;59.32;100125.91;4376693;32;20033;-85
2021/03/21 07:49:28;;;;;;;;;;;;;;;2.67;59.32;100133.72;4376383;32;20315;-85
2021/03/21 07:51:56;;;;;;;;;;;;;;;2.68;59.32;100122.59;4376418;32;20028;-88
2021/03/21 07:54:27;;;;;;;;;;;;;;;2.71;59.32;100117.44;4377563;32;20332;-86
2021/03/21 07:56:53;;;;;;;;;;;;;;;3.11;59.35;100119.38;4377503;32;19989;-86
2021/03/21 07:59:19;;;;;;;;;;;;;;;3.29;59.35;100114.25;4363498;32;20006;-86
2021/03/21 08:01:44;;;;;;;;;;;;;;;3.13;59.35;100118.53;4363136;32;20490;-87
2021/03/21 08:04:14;;;;;;;;;;;;;;;3.23;59.35;100114.25;4376882;32;20027;-85
2021/03/21 08:06:42;;;;;;;;;;;;;;;3.18;59.35;100114.25;4377265;32;20084;-86
2021/03/21 08:09:14;;;;;;;;;;;;;;;3.24;59.36;100106.53;4363453;32;19994;-84
2021/03/21 08:11:40;;;;;;;;;;;;;;;3.26;59.36;100098.81;4377264;32;19979;-84
2021/03/21 08:14:12;;;;;;;;;;;;;;;3.13;59.35;100103.09;4363496;32;19990;-85
2021/03/21 08:16:42;;;;;;;;;;;;;;;3.06;59.35;100096.19;4363608;32;20017;-85
2021/03/21 08:19:07;;;;;;;;;;;;;;;3.11;59.35;100094.50;4363624;32;19998;-85
2021/03/21 08:21:33;;;;;;;;;;;;;;;3.21;59.35;100080.81;4362448;32;34611;-85
2021/03/21 08:24:04;;;;;;;;;;;;;;;3.33;59.36;100080.00;4362671;32;30454;-85
2021/03/21 08:26:30;;;;;;;;;;;;;;;3.52;59.37;100068.00;4363345;32;20057;-85
2021/03/21 08:29:00;;;;;;;;;;;;;;;3.57;59.38;100068.91;4363383;32;19974;-87
2021/03/21 08:31:45;;;;;;;;;;;;;;;3.70;59.38;100075.75;4363565;32;20339;-86
2021/03/21 08:34:29;;;;;;;;;;;;;;;3.64;59.38;100065.47;4363164;32;20027;-87
2021/03/21 08:36:54;;;;;;;;;;;;;;;3.60;59.37;100067.19;4375791;32;20462;-86
2021/03/21 08:39:26;;;;;;;;;;;;;;;3.69;59.39;100056.88;4362506;32;30343;-86
2021/03/21 08:41:52;;;;;;;;;;;;;;;3.74;59.38;100051.72;4363365;32;20058;-86
2021/03/21 08:44:29;;;;;;;;;;;;;;;3.89;59.39;100051.75;4363145;32;20280;-85
2021/03/21 08:46:54;;;;;;;;;;;;;;;4.04;59.40;100050.03;4375715;32;19991;-86
2021/03/21 08:49:21;;;;;;;;;;;;;;;4.26;59.41;100038.84;4362352;32;33320;-87
2021/03/21 08:51:47;;;;;;;;;;;;;;;4.27;59.42;100035.41;4376905;32;20028;-86
2021/03/21 08:54:15;;;;;;;;;;;;;;;4.36;59.43;100037.09;4376903;32;20442;-85
2021/03/21 08:57:00;;;;;;;;;;;;;;;4.23;59.42;100031.09;4375655;32;19987;-86
2021/03/21 08:59:26;;;;;;;;;;;;;;;4.52;59.43;100031.91;4376438;32;20029;-86
2021/03/21 09:02:01;;;;;;;;;;;;;;;4.36;59.43;100027.63;4376968;32;19998;-85
2021/03/21 09:04:26;;;;;;;;;;;;;;;4.60;59.43;100026.72;4376885;32;20358;-86
2021/03/21 09:06:52;;;;;;;;;;;;;;;4.81;59.45;100025.78;4363101;32;19994;-86
2021/03/21 09:09:19;;;;;;;;;;;;;;;4.98;59.46;100023.13;4376689;32;19972;-87
2021/03/21 09:11:45;;;;;;;;;;;;;;;5.07;59.46;100012.75;4362966;32;20323;-86
2021/03/21 09:14:30;;;;;;;;;;;;;;;4.80;59.45;100006.84;4362039;32;19975;-85
2021/03/21 09:16:56;;;;;;;;;;;;;;;4.91;59.45;100007.66;4362874;32;19983;-86
2021/03/21 09:19:22;;;;;;;;;;;;;;;5.01;59.46;100000.75;4363091;32;20054;-86
2021/03/21 09:21:48;;;;;;;;;;;;;;;5.27;59.48;99997.16;4362808;32;20079;-85
2021/03/21 09:24:45;;;;;;;;;;;;;;;5.37;59.47;99988.47;4376164;32;20003;-85
2021/03/21 09:27:12;;;;;;;;;;;;;;;5.24;59.46;99990.28;4330120;32;19994;-85
2021/03/21 09:29:38;;;;;;;;;;;;;;;5.42;59.48;99984.09;4362949;32;20037;-84
2021/03/21 09:32:14;;;;;;;;;;;;;;;5.45;59.48;99972.06;4362914;32;19991;-85
2021/03/21 09:34:43;;;;;;;;;;;;;;;5.71;59.50;99968.41;4362943;32;20327;-85
2021/03/21 09:37:12;;;;;;;;;;;;;;;5.70;59.50;99962.37;4374987;32;19991;-86
2021/03/21 09:39:40;;;;;;;;;;;;;;;5.93;59.51;99946.72;4362543;32;19987;-84
2021/03/21 09:42:06;;;;;;;;;;;;;;;6.09;59.52;99942.22;4362656;32;19995;-86
2021/03/21 09:44:36;;;;;;;;;;;;;;;5.91;59.52;99943.25;4362274;32;20808;-87
2021/03/21 09:47:01;;;;;;;;;;;;;;;6.22;59.53;99941.22;4376344;32;19983;-85
2021/03/21 09:49:55;;;;;;;;;;;;;;;6.52;59.55;99929.66;4376299;32;20030;-85
2021/03/21 09:52:35;;;;;;;;;;;;;;;6.73;59.56;99936.28;4309784;32;20048;-85
2021/03/21 09:55:10;;;;;;;;;;;;;;;6.58;59.55;99933.88;4376382;32;19979;-85
2021/03/21 09:57:53;;;;;;;;;;;;;;;6.57;59.54;99929.59;4376158;32;20099;-86
2021/03/21 10:00:26;;;;;;;;;;;;;;;6.64;59.54;99926.06;4374977;32;20006;-85
2021/03/21 10:03:01;;;;;;;;;;;;;;;6.67;59.56;99931.19;4362338;32;19991;-85
2021/03/21 10:05:42;;;;;;;;;;;;;;;6.78;59.56;99926.72;4361242;32;19983;-85
2021/03/21 10:08:07;;;;;;;;;;;;;;;6.98;59.57;99916.09;4362142;32;20320;-85
2021/03/21 10:10:34;;;;;;;;;;;;;;;7.33;59.59;99907.75;4375762;32;20010;-88
2021/03/21 10:12:59;;;;;;;;;;;;;;;7.41;59.60;99907.66;4360093;32;20026;-86
2021/03/21 10:15:25;;;;;;;;;;;;;;;7.46;59.59;99906.69;4360302;32;30795;-87
2021/03/21 10:18:00;;;;;;;;;;;;;;;7.47;59.60;99900.63;4360272;32;20009;-86
2021/03/21 10:20:44;;;;;;;;;;;;;;;7.74;59.61;99901.03;4360890;32;20049;-86
2021/03/21 10:23:09;;;;;;;;;;;;;;;7.88;59.62;99902.50;4361748;32;20320;-86
2021/03/21 10:25:38;;;;;;;;;;;;;;;7.72;59.61;99884.66;4363503;32;19998;-86
2021/03/21 10:28:29;;;;;;;;;;;;;;;8.14;59.63;99877.81;4385526;32;20005;-87
2021/03/21 10:31:13;;;;;;;;;;;;;;;8.35;59.64;99867.03;4390118;32;19990;-86
2021/03/21 10:33:38;;;;;;;;;;;;;;;8.08;59.64;99863.22;4392934;32;19986;-86
2021/03/21 10:36:04;;;;;;;;;;;;;;;8.10;59.63;99869.22;4392127;32;26162;-87
2021/03/21 10:38:46;;;;;;;;;;;;;;;8.14;59.65;99867.44;4378648;32;20032;-85
2021/03/21 10:41:11;;;;;;;;;;;;;;;7.98;59.62;99869.47;4378960;32;19991;-89
2021/03/21 10:43:53;;;;;;;;;;;;;;;8.00;59.63;99860.78;4378594;32;20348;-84
2021/03/21 10:46:45;;;;;;;;;;;;;;;8.19;59.64;99848.28;4392710;32;19979;-84
2021/03/21 10:49:10;;;;;;;;;;;;;;;8.61;59.67;99841.37;4390572;32;20034;-85
2021/03/21 10:51:54;;;;;;;;;;;;;;;8.96;59.68;99846.63;4392670;32;20001;-88
2021/03/21 10:54:23;;;;;;;;;;;;;;;8.76;59.68;99852.31;4392762;32;19986;-86
2021/03/21 10:57:07;;;;;;;;;;;;;;;8.34;59.65;99849.75;4392813;32;20029;-87
2021/03/21 10:59:33;;;;;;;;;;;;;;;8.28;59.64;99849.84;4392574;32;19993;-86
2021/03/21 11:02:27;;;;;;;;;;;;;;;8.28;59.64;99850.72;4378441;32;20011;-86
2021/03/21 11:04:58;;;;;;;;;;;;;;;8.27;59.64;99842.94;4382585;32;20257;-86
2021/03/21 11:07:24;;;;;;;;;;;;;;;8.23;59.64;99836.97;4376016;32;19983;-87
2021/03/21 11:10:08;;;;;;;;;;;;;;;8.64;59.67;99835.25;4363617;32;19986;-87
2021/03/21 11:12:37;;;;;;;;;;;;;;;8.58;59.66;99835.41;4376523;32;20016;-87
2021/03/21 11:15:15;;;;;;;;;;;;;;;8.30;59.65;99820.41;4376281;32;20117;-87
2021/03/21 11:17:41;;;;;;;;;;;;;;;8.09;59.63;99813.09;4375987;32;20380;-85
2021/03/21 11:20:17;;;;;;;;;;;;;;;8.15;59.64;99812.94;4375680;32;29176;-87
2021/03/21 11:22:42;;;;;;;;;;;;;;;8.09;59.63;99807.91;4376102;32;20046;-85
2021/03/21 11:25:11;;;;;;;;;;;;;;;8.24;59.64;99804.97;4377406;32;19990;-86
2021/03/21 11:27:36;;;;;;;;;;;;;;;8.31;59.65;99803.13;4376050;32;19982;-86
2021/03/21 11:30:12;;;;;;;;;;;;;;;8.41;59.65;99793.41;4377403;32;20327;-85
2021/03/21 11:32:38;;;;;;;;;;;;;;;8.72;59.67;99786.59;4377442;32;19995;-85
2021/03/21 11:35:05;;;;;;;;;;;;;;;8.83;59.68;99792.41;4377246;32;20473;-86
2021/03/21 11:37:31;;;;;;;;;;;;;;;8.51;59.67;99781.91;4375366;32;19979;-85
2021/03/21 11:40:07;;;;;;;;;;;;;;;8.53;59.67;99765.47;4352373;32;801652;-87
2021/03/21 11:42:33;;;;;;;;;;;;;;;8.63;59.67;99758.31;4375945;32;20030;-85
2021/03/21 11:45:15;;;;;;;;;;;;;;;8.50;59.66;99762.91;4375876;32;20082;-86
2021/03/21 11:47:41;;;;;;;;;;;;;;;8.42;59.65;99754.47;4375915;32;20129;-87
2021/03/21 11:50:07;;;;;;;;;;;;;;;8.41;59.65;99744.97;4375741;32;19979;-84
2021/03/21 11:52:35;;;;;;;;;;;;;;;8.74;59.67;99747.66;4375866;32;20013;-84
2021/03/21 11:55:00;;;;;;;;;;;;;;;8.86;59.68;99740.41;4375764;32;20042;-83
2021/03/21 11:57:28;;;;;;;;;;;;;;;8.72;59.67;99739.03;4376684;32;21486;-84
2021/03/21 12:00:01;;;;;;;;;;;;;;;8.66;59.67;99727.09;4363340;32;20007;-84
2021/03/21 12:02:32;;;;;;;;;;;;;;;8.78;59.68;99719.00;4375921;32;20017;-85
2021/03/21 12:04:59;;;;;;;;;;;;;;;8.71;59.67;99714.00;4377261;32;20264;-84
2021/03/21 12:07:25;;;;;;;;;;;;;;;8.72;59.67;99706.16;4375653;32;19983;-84
2021/03/21 12:09:50;;;;;;;;;;;;;;;8.57;59.66;99699.62;4363226;32;19986;-84
2021/03/21 12:12:29;;;;;;;;;;;;;;;8.39;59.65;99702.66;4375632;32;20010;-87
2021/03/21 12:14:56;;;;;;;;;;;;;;;8.43;59.65;99687.87;4375818;32;19991;-85
2021/03/21 12:17:24;;;;;;;;;;;;;;;8.74;59.66;99680.16;4375478;32;19959;-85
2021/03/21 12:19:50;;;;;;;;;;;;;;;8.89;59.69;99680.63;4377029;32;20464;-85
2021/03/21 12:22:21;;;;;;;;;;;;;;;9.12;59.70;99668.78;4375471;32;19999;-86
2021/03/21 12:24:53;;;;;;;;;;;;;;;9.01;59.69;99665.66;4375795;32;19999;-86
2021/03/21 12:27:26;;;;;;;;;;;;;;;8.96;59.68;99659.69;4375570;32;19982;-85
2021/03/21 12:29:51;;;;;;;;;;;;;;;8.78;59.68;99648.09;4375649;32;19979;-84
2021/03/21 12:32:16;;;;;;;;;;;;;;;8.93;59.68;99650.25;4375659;32;20204;-87
2021/03/21 12:34:42;;;;;;;;;;;;;;;8.87;59.68;99653.88;4376855;32;20001;-88
2021/03/21 12:37:08;;;;;;;;;;;;;;;8.89;59.69;99646.03;4375850;32;20320;-89
2021/03/21 12:39:38;;;;;;;;;;;;;;;8.72;59.67;99640.44;4375986;32;20009;-89
2021/03/21 12:42:03;;;;;;;;;;;;;;;8.53;59.67;99640.94;4375542;32;20051;-84
2021/03/21 12:44:32;;;;;;;;;;;;;;;8.53;59.67;99621.94;4375483;32;19987;-85
2021/03/21 12:47:03;;;;;;;;;;;;;;;8.66;59.68;99623.28;4376750;32;19990;-86
2021/03/21 12:49:38;;;;;;;;;;;;;;;8.43;59.65;99616.09;4375929;32;19991;-86
2021/03/21 12:52:05;;;;;;;;;;;;;;;8.75;59.68;99606.63;4376795;32;20001;-85
2021/03/21 12:54:30;;;;;;;;;;;;;;;8.91;59.69;99608.75;4375448;32;19998;-86
2021/03/21 12:56:55;;;;;;;;;;;;;;;9.00;59.69;99604.22;4376041;32;29007;-87
2021/03/21 12:59:21;;;;;;;;;;;;;;;9.28;59.71;99605.16;4375449;32;19994;-86
2021/03/21 13:01:46;;;;;;;;;;;;;;;9.35;59.71;99595.41;4375194;32;19999;-86
2021/03/21 13:04:12;;;;;;;;;;;;;;;9.26;59.71;99588.75;4376737;32;20269;-85
2021/03/21 13:06:38;;;;;;;;;;;;;;;9.22;59.70;99587.97;4374801;32;20387;-87